Time;durP1;ratioP1;P1;durP2;ratioP2;P2;SDS_P1;SDS_P2;PMS_P1;PMS_P2;Temp;Humidity;BMP_temperature;BMP_pressure;BME280_temperature;BME280_humidity;BME280_pressure;Samples;Min_cycle;Max_cycle;Signal;HPM_P1;HPM_P2
2023/03/20 00:00:18;;;;;;;22.75;15.20;;;19.10;99.90;;;;;;4588886;19;20374;-29
2023/03/20 00:02:17;;;;;;;24.20;15.13;;;19.10;99.90;;;;;;4588259;19;20029;-28
2023/03/20 00:03:51;;;;;;;25.10;18.10;;;19.10;99.90;;;;;;4586675;19;20022;-30
2023/03/20 00:05:24;;;;;;;22.85;15.23;;;19.10;99.90;;;;;;4588012;19;20642;-31
2023/03/20 00:06:55;;;;;;;23.65;15.82;;;19.10;99.90;;;;;;4589274;19;20468;-32
2023/03/20 00:08:27;;;;;;;24.75;15.88;;;19.00;99.90;;;;;;4589181;19;20006;-29
2023/03/20 00:09:59;;;;;;;24.67;16.67;;;19.00;99.90;;;;;;4590917;19;20100;-29
2023/03/20 00:11:43;;;;;;;24.73;15.95;;;19.00;99.90;;;;;;4588677;19;20062;-30
2023/03/20 00:13:24;;;;;;;23.40;16.25;;;19.00;99.90;;;;;;4589785;19;20007;-32
2023/03/20 00:15:06;;;;;;;21.80;15.43;;;19.00;99.90;;;;;;4589150;19;20530;-30
2023/03/20 00:16:40;;;;;;;24.25;14.77;;;19.00;99.90;;;;;;4588447;19;20014;-32
2023/03/20 00:18:19;;;;;;;24.88;15.65;;;19.00;99.90;;;;;;4589333;19;20015;-31
2023/03/20 00:19:51;;;;;;;25.20;16.25;;;19.00;99.90;;;;;;4590389;19;20030;-29
2023/03/20 00:21:23;;;;;;;23.35;15.45;;;18.90;99.90;;;;;;4589222;19;20033;-28
2023/03/20 00:22:54;;;;;;;24.55;15.75;;;19.00;99.90;;;;;;4589540;19;20023;-31
2023/03/20 00:24:26;;;;;;;;;;;18.90;99.90;;;;;;4591358;19;20492;-30
2023/03/20 00:25:57;;;;;;;21.75;15.38;;;18.90;99.90;;;;;;4589833;19;19919;-30
2023/03/20 00:27:28;;;;;;;20.98;14.43;;;18.90;99.90;;;;;;4588671;19;20010;-30
2023/03/20 00:29:00;;;;;;;22.63;14.93;;;18.90;99.90;;;;;;4588809;19;20027;-30
2023/03/20 00:30:32;;;;;;;19.40;14.60;;;18.90;99.90;;;;;;4587426;19;20046;-30
2023/03/20 00:32:04;;;;;;;22.17;15.23;;;18.90;99.90;;;;;;4589603;19;20116;-32
2023/03/20 00:33:37;;;;;;;20.65;15.07;;;18.80;99.90;;;;;;4589193;19;20010;-30
2023/03/20 00:35:28;;;;;;;21.83;15.07;;;18.90;99.90;;;;;;4589557;19;20369;-31
2023/03/20 00:37:00;;;;;;;21.52;15.43;;;18.90;99.90;;;;;;4589735;19;20029;-30
2023/03/20 00:38:31;;;;;;;20.42;14.75;;;18.90;99.90;;;;;;4590308;19;20501;-32
2023/03/20 00:40:03;;;;;;;22.63;15.50;;;18.80;99.90;;;;;;4589719;19;20026;-31
2023/03/20 00:42:06;;;;;;;22.08;15.65;;;18.80;99.90;;;;;;4588356;19;20089;-30
2023/03/20 00:43:38;;;;;;;22.77;14.95;;;18.80;99.90;;;;;;4587052;19;20018;-30
2023/03/20 00:45:14;;;;;;;22.02;14.27;;;18.80;99.90;;;;;;4586710;19;20025;-29
2023/03/20 00:46:49;;;;;;;21.58;14.43;;;18.80;99.90;;;;;;4587994;19;20015;-30
2023/03/20 00:48:20;;;;;;;21.88;15.43;;;18.80;99.90;;;;;;4586504;19;20406;-30
2023/03/20 00:49:54;;;;;;;21.67;15.40;;;18.80;99.90;;;;;;4587529;19;20026;-31
2023/03/20 00:51:25;;;;;;;21.98;14.60;;;18.80;99.90;;;;;;4586374;19;20026;-29
2023/03/20 00:52:57;;;;;;;23.10;15.18;;;18.80;99.90;;;;;;4585998;19;20019;-29
2023/03/20 00:54:29;;;;;;;21.83;15.38;;;18.80;99.90;;;;;;4591573;19;20026;-32
2023/03/20 00:56:00;;;;;;;19.77;15.00;;;18.70;99.90;;;;;;4589279;19;20515;-29
2023/03/20 00:57:41;;;;;;;21.42;15.55;;;18.70;99.90;;;;;;4592667;19;20044;-29
2023/03/20 00:59:16;;;;;;;24.17;15.93;;;18.70;99.90;;;;;;4591839;19;20010;-29
2023/03/20 01:00:49;;;;;;;22.92;15.15;;;18.70;99.90;;;;;;4592838;19;20011;-30
2023/03/20 01:02:20;;;;;;;21.23;15.20;;;18.70;99.90;;;;;;4592152;19;20401;-30
2023/03/20 01:03:52;;;;;;;24.45;14.75;;;18.70;99.90;;;;;;4590837;19;20014;-30
2023/03/20 01:05:24;;;;;;;21.42;15.70;;;18.70;99.90;;;;;;4591037;19;20011;-32
2023/03/20 01:06:57;;;;;;;23.35;15.38;;;18.70;99.90;;;;;;4591458;19;20031;-28
2023/03/20 01:08:29;;;;;;;22.00;14.27;;;18.70;99.90;;;;;;4590276;19;20022;-32
2023/03/20 01:10:00;;;;;;;19.33;14.50;;;18.70;99.90;;;;;;4591936;19;20501;-29
2023/03/20 01:11:31;;;;;;;19.10;13.93;;;18.70;99.90;;;;;;4589273;19;20019;-29
2023/03/20 01:13:03;;;;;;;22.33;14.88;;;18.60;99.90;;;;;;4592540;19;20019;-30
2023/03/20 01:14:34;;;;;;;20.95;15.05;;;18.60;99.90;;;;;;4590722;19;20011;-31
2023/03/20 01:16:21;;;;;;;21.85;14.95;;;18.60;99.90;;;;;;4590307;19;20010;-31
2023/03/20 01:17:53;;;;;;;22.35;15.38;;;18.60;99.90;;;;;;4592122;19;20007;-29
2023/03/20 01:19:24;;;;;;;20.58;14.80;;;18.60;99.90;;;;;;4591823;19;20007;-32
2023/03/20 01:20:57;;;;;;;21.05;14.80;;;18.60;99.90;;;;;;4590837;19;20038;-30
2023/03/20 01:22:29;;;;;;;;;;;18.60;99.90;;;;;;4594557;19;20007;-30
2023/03/20 01:24:00;;;;;;;22.42;15.45;;;18.60;99.90;;;;;;4593632;19;19947;-34
2023/03/20 01:25:33;;;;;;;21.38;14.68;;;18.60;99.90;;;;;;4594645;19;20035;-30
2023/03/20 01:27:16;;;;;;;20.67;14.88;;;18.60;99.90;;;;;;4590493;19;20042;-29
2023/03/20 01:28:48;;;;;;;22.15;15.20;;;18.60;99.90;;;;;;4591939;19;20722;-31
2023/03/20 01:30:22;;;;;;;22.73;14.98;;;18.60;99.90;;;;;;4591365;19;20017;-30
2023/03/20 01:31:55;;;;;;;20.80;14.38;;;18.60;99.90;;;;;;4593902;19;20014;-31
2023/03/20 01:33:28;;;;;;;20.33;13.90;;;18.50;99.90;;;;;;4593204;19;20015;-30
2023/03/20 01:34:59;;;;;;;20.60;14.68;;;18.50;99.90;;;;;;4593868;19;20472;-30
2023/03/20 01:36:31;;;;;;;20.45;14.18;;;18.50;99.90;;;;;;4590836;19;20026;-30
2023/03/20 01:38:10;;;;;;;20.45;14.32;;;18.50;99.90;;;;;;4592828;19;20074;-30
2023/03/20 01:39:42;;;;;;;22.30;15.02;;;18.50;99.90;;;;;;4591237;19;20022;-29
2023/03/20 01:41:17;;;;;;;19.75;14.60;;;18.50;99.90;;;;;;4593779;19;20026;-29
2023/03/20 01:42:48;;;;;;;22.17;14.45;;;18.50;99.90;;;;;;4593630;19;20025;-29
2023/03/20 01:44:24;;;;;;;;;;;18.50;99.90;;;;;;4593301;19;20718;-32
2023/03/20 01:45:59;;;;;;;19.85;14.60;;;18.50;99.90;;;;;;4593740;19;20306;-30
2023/03/20 01:47:31;;;;;;;21.42;14.57;;;18.50;99.90;;;;;;4593149;19;20078;-33
2023/03/20 01:49:23;;;;;;;20.63;14.40;;;18.50;99.90;;;;;;4592590;19;20081;-29
2023/03/20 01:50:54;;;;;;;21.77;14.80;;;18.50;99.90;;;;;;4588907;19;20421;-30
2023/03/20 01:52:26;;;;;;;21.25;15.45;;;18.40;99.90;;;;;;4591323;19;20039;-31
2023/03/20 01:54:14;;;;;;;22.05;15.25;;;18.50;99.90;;;;;;4590850;19;20046;-30
2023/03/20 01:55:46;;;;;;;21.05;15.05;;;18.40;99.90;;;;;;4588634;19;20010;-29
2023/03/20 01:57:20;;;;;;;23.10;15.32;;;18.40;99.90;;;;;;4591166;19;20018;-31
2023/03/20 01:58:57;;;;;;;20.33;15.02;;;18.40;99.90;;;;;;4591427;19;20050;-29
2023/03/20 02:00:28;;;;;;;22.70;15.35;;;18.40;99.90;;;;;;4589925;19;20019;-33
2023/03/20 02:01:59;;;;;;;22.95;15.57;;;18.40;99.90;;;;;;4591127;19;20046;-29
2023/03/20 02:03:32;;;;;;;19.20;14.52;;;18.40;99.90;;;;;;4591302;19;20014;-28
2023/03/20 02:05:05;;;;;;;21.75;16.02;;;18.40;99.90;;;;;;4588903;19;20053;-29
2023/03/20 02:06:37;;;;;;;19.83;13.77;;;18.40;99.90;;;;;;4590817;19;20010;-31
2023/03/20 02:08:28;;;;;;;21.65;15.15;;;18.40;99.90;;;;;;4588945;19;20018;-31
2023/03/20 02:10:04;;;;;;;20.88;14.63;;;18.40;99.90;;;;;;4590509;19;20054;-30
2023/03/20 02:11:38;;;;;;;20.33;15.00;;;18.40;99.90;;;;;;4587857;19;20017;-30
2023/03/20 02:13:10;;;;;;;22.10;14.65;;;18.40;99.90;;;;;;4590439;19;20019;-30
2023/03/20 02:14:42;;;;;;;22.27;15.85;;;18.40;99.90;;;;;;4589856;19;20255;-30
2023/03/20 02:16:15;;;;;;;21.45;14.90;;;18.40;99.90;;;;;;4589167;19;20018;-31
2023/03/20 02:17:47;;;;;;;19.73;13.98;;;18.40;99.90;;;;;;4589594;19;20039;-28
2023/03/20 02:19:43;;;;;;;20.35;14.25;;;18.40;99.90;;;;;;4589496;19;20014;-30
2023/03/20 02:21:38;;;;;;;21.00;14.38;;;18.40;99.90;;;;;;4589081;19;20021;-28
2023/03/20 02:23:31;;;;;;;21.30;14.63;;;18.40;99.90;;;;;;4589750;19;20014;-28
2023/03/20 02:25:40;;;;;;;21.80;15.25;;;18.40;99.90;;;;;;4590842;19;20014;-32
2023/03/20 02:27:29;;;;;;;21.25;14.85;;;18.40;99.90;;;;;;4587979;19;20023;-30
2023/03/20 02:29:33;;;;;;;22.65;15.10;;;18.30;99.90;;;;;;4590480;19;20105;-31
2023/03/20 02:31:16;;;;;;;20.75;15.18;;;18.30;99.90;;;;;;4589060;19;20043;-30
2023/03/20 02:33:06;;;;;;;22.52;15.00;;;18.30;99.90;;;;;;4589428;19;20042;-29
2023/03/20 02:35:16;;;;;;;20.38;13.90;;;18.30;99.90;;;;;;4589364;19;20023;-29
2023/03/20 02:37:09;;;;;;;21.23;13.82;;;18.30;99.90;;;;;;4589378;19;20022;-30
2023/03/20 02:38:43;;;;;;;21.73;14.98;;;18.30;99.90;;;;;;4590956;19;20010;-29
2023/03/20 02:40:25;;;;;;;22.35;15.15;;;18.30;99.90;;;;;;4589660;19;20014;-30
2023/03/20 02:42:07;;;;;;;22.33;14.20;;;18.30;99.90;;;;;;4589485;19;20122;-32
2023/03/20 02:43:50;;;;;;;19.75;13.82;;;18.30;99.90;;;;;;4589529;19;20021;-28
2023/03/20 02:45:30;;;;;;;22.88;14.57;;;18.30;99.90;;;;;;4589286;19;20534;-29
2023/03/20 02:47:15;;;;;;;20.05;14.25;;;18.30;99.90;;;;;;4589269;19;20006;-28
2023/03/20 02:49:00;;;;;;;19.58;14.30;;;18.30;99.90;;;;;;4589701;19;20023;-30
2023/03/20 02:51:00;;;;;;;21.50;15.82;;;18.30;99.90;;;;;;4589182;19;20070;-29
2023/03/20 02:53:02;;;;;;;19.85;14.27;;;18.30;99.90;;;;;;4588985;19;20066;-30
2023/03/20 02:54:49;;;;;;;20.92;14.93;;;18.20;99.90;;;;;;4589173;19;20010;-29
2023/03/20 02:56:48;;;;;;;20.48;13.82;;;18.20;99.90;;;;;;4587931;19;20011;-29
2023/03/20 02:58:34;;;;;;;20.00;14.48;;;18.20;99.90;;;;;;4588860;19;20027;-30
2023/03/20 03:00:13;;;;;;;20.02;13.90;;;18.20;99.90;;;;;;4589074;19;20036;-29
2023/03/20 03:01:47;;;;;;;19.58;13.45;;;18.20;99.90;;;;;;4589417;19;20347;-29
2023/03/20 03:03:31;;;;;;;20.17;14.50;;;18.20;99.90;;;;;;4588965;19;20018;-31
2023/03/20 03:05:25;;;;;;;21.45;14.77;;;18.20;99.90;;;;;;4588529;19;20011;-29
2023/03/20 03:06:58;;;;;;;19.92;14.00;;;18.20;99.90;;;;;;4588933;19;20018;-29
2023/03/20 03:08:32;;;;;;;18.65;13.55;;;18.20;99.90;;;;;;4589200;19;20011;-30
2023/03/20 03:10:51;;;;;;;18.33;13.13;;;18.20;99.90;;;;;;4588741;19;20407;-30
2023/03/20 03:12:27;;;;;;;19.67;13.77;;;18.20;99.90;;;;;;4587135;19;20019;-28
2023/03/20 03:13:58;;;;;;;19.98;13.40;;;18.20;99.90;;;;;;4588180;19;20104;-29
2023/03/20 03:15:40;;;;;;;21.63;14.93;;;18.20;99.90;;;;;;4588274;19;20470;-29
2023/03/20 03:17:12;;;;;;;17.67;13.85;;;18.20;99.90;;;;;;4587833;19;20130;-30
2023/03/20 03:18:43;;;;;;;19.45;14.10;;;18.20;99.90;;;;;;4588782;19;20010;-29
2023/03/20 03:20:31;;;;;;;18.90;13.30;;;18.20;99.90;;;;;;4588599;19;20024;-29
2023/03/20 03:22:03;;;;;;;18.67;13.68;;;18.20;99.90;;;;;;4588704;19;20082;-29
2023/03/20 03:23:55;;;;;;;18.23;13.38;;;18.20;99.90;;;;;;4588722;19;20018;-30
2023/03/20 03:25:31;;;;;;;19.00;14.05;;;18.20;99.90;;;;;;4588675;19;20017;-30
2023/03/20 03:27:06;;;;;;;20.30;13.85;;;18.20;99.90;;;;;;4588455;19;20031;-32
2023/03/20 03:28:47;;;;;;;20.85;14.82;;;18.20;99.90;;;;;;4588847;19;20098;-29
2023/03/20 03:30:27;;;;;;;19.33;13.63;;;18.10;99.90;;;;;;4588775;19;20014;-28
2023/03/20 03:32:01;;;;;;;20.85;14.43;;;18.10;99.90;;;;;;4588706;19;20602;-29
2023/03/20 03:33:33;;;;;;;20.15;13.98;;;18.20;99.90;;;;;;4588441;19;20006;-27
2023/03/20 03:35:09;;;;;;;17.50;13.20;;;18.20;99.90;;;;;;4588420;19;20014;-29
2023/03/20 03:37:10;;;;;;;18.08;12.82;;;18.20;99.90;;;;;;4587489;19;20014;-29
2023/03/20 03:39:18;;;;;;;18.42;14.32;;;18.20;99.90;;;;;;4588653;19;20014;-29
2023/03/20 03:40:58;;;;;;;20.20;13.40;;;18.20;99.90;;;;;;4588305;19;20014;-30
2023/03/20 03:42:30;;;;;;;18.30;13.30;;;18.20;99.90;;;;;;4588445;19;20018;-30
2023/03/20 03:44:11;;;;;;;19.92;13.52;;;18.10;99.90;;;;;;4588136;19;20010;-27
2023/03/20 03:46:07;;;;;;;16.55;11.82;;;18.10;99.90;;;;;;4588370;19;20022;-29
2023/03/20 03:47:45;;;;;;;17.80;12.68;;;18.10;99.90;;;;;;4588200;19;20011;-29
2023/03/20 03:49:21;;;;;;;17.67;12.68;;;18.10;99.90;;;;;;4588123;19;20020;-29
2023/03/20 03:50:54;;;;;;;19.08;13.20;;;18.10;99.90;;;;;;4588235;19;20076;-31
2023/03/20 03:52:26;;;;;;;17.13;13.90;;;18.10;99.90;;;;;;4587902;19;20334;-29
2023/03/20 03:54:05;;;;;;;19.20;13.32;;;18.10;99.90;;;;;;4587888;19;20011;-31
2023/03/20 03:55:41;;;;;;;17.92;13.23;;;18.10;99.90;;;;;;4587791;19;20087;-32
2023/03/20 03:57:17;;;;;;;17.33;12.85;;;18.10;99.90;;;;;;4588136;19;20050;-30
2023/03/20 03:58:56;;;;;;;18.02;12.55;;;18.10;99.90;;;;;;4587722;19;20022;-28
2023/03/20 04:00:29;;;;;;;19.42;13.40;;;18.10;99.90;;;;;;4587945;19;20373;-30
2023/03/20 04:02:03;;;;;;;17.25;13.35;;;18.10;99.90;;;;;;4587701;19;20418;-29
2023/03/20 04:03:41;;;;;;;18.23;13.77;;;18.10;99.90;;;;;;4587822;19;20093;-29
2023/03/20 04:05:12;;;;;;;18.27;13.38;;;18.10;99.90;;;;;;4587259;19;20006;-29
2023/03/20 04:06:43;;;;;;;17.58;12.95;;;18.10;99.90;;;;;;4587910;19;20011;-28
2023/03/20 04:08:15;;;;;;;;;;;18.10;99.90;;;;;;4588747;19;20011;-29
2023/03/20 04:09:46;;;;;;;18.17;12.82;;;18.10;99.90;;;;;;4587810;19;19925;-29
2023/03/20 04:11:24;;;;;;;19.55;13.32;;;18.10;99.90;;;;;;4587003;19;20014;-29
2023/03/20 04:12:56;;;;;;;17.45;13.05;;;18.10;99.90;;;;;;4587848;19;20015;-30
2023/03/20 04:14:28;;;;;;;18.08;13.05;;;18.10;99.90;;;;;;4587703;19;20014;-30
2023/03/20 04:16:01;;;;;;;17.55;13.45;;;18.10;99.90;;;;;;4586894;19;20385;-30
2023/03/20 04:17:34;;;;;;;18.33;12.98;;;18.10;99.90;;;;;;4587451;19;20092;-30
2023/03/20 04:19:05;;;;;;;18.65;13.20;;;18.10;99.90;;;;;;4587568;19;20022;-30
2023/03/20 04:20:37;;;;;;;17.92;12.88;;;18.10;99.90;;;;;;4587843;19;20014;-29
2023/03/20 04:22:09;;;;;;;17.55;13.07;;;18.10;99.90;;;;;;4587579;19;20417;-29
2023/03/20 04:23:41;;;;;;;16.20;12.10;;;18.10;99.90;;;;;;4587814;19;20018;-30
2023/03/20 04:25:20;;;;;;;19.23;13.68;;;18.10;99.90;;;;;;4587401;19;20669;-27
2023/03/20 04:26:51;;;;;;;18.40;13.40;;;18.10;99.90;;;;;;4588505;19;20018;-30
2023/03/20 04:28:22;;;;;;;17.10;12.32;;;18.10;99.90;;;;;;4586850;19;20479;-28
2023/03/20 04:29:55;;;;;;;16.77;12.02;;;18.10;99.90;;;;;;4591196;19;20011;-29
2023/03/20 04:31:27;;;;;;;17.75;12.80;;;18.10;99.90;;;;;;4591326;19;20364;-28
2023/03/20 04:32:58;;;;;;;17.83;11.98;;;18.10;99.90;;;;;;4592116;19;20014;-29
2023/03/20 04:34:29;;;;;;;18.58;12.25;;;18.10;99.90;;;;;;4591956;19;20034;-32
2023/03/20 04:36:01;;;;;;;;;;;18.10;99.90;;;;;;4591473;19;20412;-29
2023/03/20 04:37:34;;;;;;;15.55;12.32;;;18.00;99.90;;;;;;4591421;19;19922;-29
2023/03/20 04:39:05;;;;;;;16.17;11.80;;;18.10;99.90;;;;;;4591903;19;20014;-29
2023/03/20 04:40:37;;;;;;;18.10;12.70;;;18.00;99.90;;;;;;4589496;19;20019;-30
2023/03/20 04:42:09;;;;;;;17.48;12.77;;;18.00;99.90;;;;;;4589267;19;20034;-30
2023/03/20 04:43:40;;;;;;;19.10;12.60;;;18.00;99.90;;;;;;4589489;19;20418;-29
2023/03/20 04:45:12;;;;;;;16.27;12.48;;;18.00;99.90;;;;;;4589205;19;20018;-28
2023/03/20 04:46:45;;;;;;;17.75;12.27;;;18.00;99.90;;;;;;4589911;19;20011;-29
2023/03/20 04:48:16;;;;;;;16.55;11.27;;;18.00;99.90;;;;;;4592066;19;20015;-29
2023/03/20 04:49:48;;;;;;;15.40;11.32;;;18.00;99.90;;;;;;4589586;19;20044;-28
2023/03/20 04:51:21;;;;;;;16.13;10.98;;;18.10;99.90;;;;;;4588192;19;20560;-29
2023/03/20 04:52:54;;;;;;;13.73;10.60;;;18.10;99.90;;;;;;4589008;19;20007;-30
2023/03/20 04:54:26;;;;;;;13.35;9.45;;;18.10;99.90;;;;;;4589135;19;20519;-29
2023/03/20 04:55:57;;;;;;;14.95;10.63;;;18.20;99.90;;;;;;4588907;19;20014;-28
2023/03/20 04:57:30;;;;;;;14.13;10.57;;;18.20;99.90;;;;;;4591219;19;20015;-33
2023/03/20 04:59:02;;;;;;;14.38;10.10;;;18.20;99.90;;;;;;4588959;19;20011;-30
2023/03/20 05:00:34;;;;;;;16.23;10.95;;;18.30;99.90;;;;;;4588925;19;20031;-28
2023/03/20 05:02:05;;;;;;;12.55;9.48;;;18.30;99.90;;;;;;4588253;19;20011;-31
2023/03/20 05:03:38;;;;;;;13.73;9.80;;;18.30;99.90;;;;;;4588768;19;20023;-29
2023/03/20 05:05:09;;;;;;;14.68;10.20;;;18.40;99.90;;;;;;4587225;19;20049;-31
2023/03/20 05:06:42;;;;;;;14.40;10.15;;;18.40;99.90;;;;;;4588451;19;20034;-31
2023/03/20 05:08:15;;;;;;;14.32;10.07;;;18.40;99.90;;;;;;4587838;19;20021;-29
2023/03/20 05:09:48;;;;;;;14.18;9.35;;;18.50;99.90;;;;;;4588491;19;20011;-28
2023/03/20 05:11:20;;;;;;;13.60;9.73;;;18.50;99.90;;;;;;4587819;19;20015;-29
2023/03/20 05:12:52;;;;;;;13.35;9.30;;;18.60;99.90;;;;;;4589203;19;20074;-30
2023/03/20 05:14:25;;;;;;;14.32;9.80;;;18.60;99.90;;;;;;4587559;19;20015;-29
2023/03/20 05:15:56;;;;;;;13.32;9.02;;;18.60;99.90;;;;;;4587885;19;20010;-29
2023/03/20 05:17:29;;;;;;;12.63;9.45;;;18.60;99.90;;;;;;4588956;19;20010;-29
2023/03/20 05:19:02;;;;;;;12.23;9.00;;;18.70;99.90;;;;;;4588847;19;20471;-31
2023/03/20 05:20:35;;;;;;;12.57;9.07;;;18.70;99.90;;;;;;4587615;19;20040;-31
2023/03/20 05:22:07;;;;;;;14.00;9.90;;;18.70;99.90;;;;;;4588422;19;20025;-28
2023/03/20 05:23:39;;;;;;;12.80;9.48;;;18.80;99.90;;;;;;4588996;19;20021;-34
2023/03/20 05:25:10;;;;;;;11.70;8.35;;;18.80;99.90;;;;;;4589060;19;20014;-30
2023/03/20 05:26:42;;;;;;;13.05;9.00;;;18.80;99.90;;;;;;4588655;19;20021;-30
2023/03/20 05:28:13;;;;;;;14.27;9.27;;;18.80;99.90;;;;;;4588770;19;20011;-30
2023/03/20 05:29:46;;;;;;;11.77;8.98;;;18.80;99.90;;;;;;4588470;19;20011;-29
2023/03/20 05:31:17;;;;;;;;;;;18.90;99.90;;;;;;4589836;19;20010;-29
2023/03/20 05:32:49;;;;;;;12.60;9.45;;;18.90;99.90;;;;;;4588634;19;19925;-29
2023/03/20 05:34:20;;;;;;;11.80;8.75;;;18.90;99.90;;;;;;4587464;19;20014;-29
2023/03/20 05:35:53;;;;;;;11.10;8.52;;;18.90;99.90;;;;;;4587748;19;20007;-27
2023/03/20 05:37:25;;;;;;;12.00;8.43;;;18.90;99.90;;;;;;4588824;19;20018;-31
2023/03/20 05:38:58;;;;;;;12.10;9.07;;;19.00;99.90;;;;;;4588285;19;20026;-30
2023/03/20 05:40:30;;;;;;;12.70;9.93;;;19.00;99.90;;;;;;4592067;19;20086;-28
2023/03/20 05:42:02;;;;;;;12.18;9.70;;;19.00;99.90;;;;;;4592650;19;20361;-34
2023/03/20 05:43:35;;;;;;;11.98;9.32;;;19.10;99.90;;;;;;4592929;19;20364;-29
2023/03/20 05:45:07;;;;;;;13.07;9.82;;;19.10;99.90;;;;;;4591743;19;20018;-29
2023/03/20 05:46:38;;;;;;;14.50;10.43;;;19.10;99.90;;;;;;4591885;19;20017;-31
2023/03/20 05:48:09;;;;;;;14.10;10.32;;;19.10;99.90;;;;;;4592082;19;20034;-30
2023/03/20 05:49:41;;;;;;;15.55;10.27;;;19.10;99.90;;;;;;4592416;19;20022;-29
2023/03/20 05:51:12;;;;;;;14.00;10.50;;;19.10;99.90;;;;;;4592768;19;20014;-30
2023/03/20 05:52:47;;;;;;;17.00;11.73;;;19.10;99.90;;;;;;4593035;19;20007;-28
2023/03/20 05:54:18;;;;;;;14.10;10.35;;;19.00;99.90;;;;;;4592817;19;20021;-29
2023/03/20 05:55:49;;;;;;;13.88;10.05;;;19.10;99.90;;;;;;4592491;19;20481;-33
2023/03/20 05:57:21;;;;;;;15.23;10.38;;;19.10;99.90;;;;;;4592788;19;20080;-30
2023/03/20 05:58:54;;;;;;;14.45;10.32;;;19.10;99.90;;;;;;4591515;19;20078;-30
2023/03/20 06:00:25;;;;;;;14.40;10.18;;;19.00;99.90;;;;;;4593252;19;20011;-31
2023/03/20 06:01:57;;;;;;;14.20;10.63;;;19.10;99.90;;;;;;4594696;19;20013;-29
2023/03/20 06:03:28;;;;;;;13.52;10.57;;;19.10;99.90;;;;;;4592466;19;20010;-30
2023/03/20 06:05:01;;;;;;;13.43;9.77;;;19.00;99.90;;;;;;4592006;19;20479;-29
2023/03/20 06:06:36;;;;;;;11.65;9.18;;;19.00;99.90;;;;;;4592524;19;20014;-28
2023/03/20 06:08:08;;;;;;;14.27;10.25;;;19.00;99.90;;;;;;4592464;19;20014;-31
2023/03/20 06:09:39;;;;;;;14.90;10.57;;;19.00;99.90;;;;;;4592861;19;20030;-29
2023/03/20 06:11:13;;;;;;;14.95;11.07;;;19.00;99.90;;;;;;4591426;19;20120;-30
2023/03/20 06:12:45;;;;;;;;;;;19.00;99.90;;;;;;4593337;19;20096;-29
2023/03/20 06:14:17;;;;;;;14.30;10.23;;;19.00;99.90;;;;;;4592202;19;19915;-33
2023/03/20 06:15:50;;;;;;;13.02;10.20;;;19.00;99.90;;;;;;4591744;19;20583;-29
2023/03/20 06:17:22;;;;;;;8.85;7.22;;;19.00;99.90;;;;;;4592833;19;20006;-31
2023/03/20 06:18:53;;;;;;;61.30;43.80;;;18.60;99.90;;;;;;4592250;19;20018;-29
2023/03/20 06:20:25;;;;;;;64.97;44.42;;;17.60;99.90;;;;;;4592805;19;20018;-29
2023/03/20 06:21:56;;;;;;;58.55;45.63;;;16.80;99.90;;;;;;4591275;19;20011;-32
2023/03/20 06:23:27;;;;;;;65.28;46.75;;;16.00;99.90;;;;;;4591900;19;20011;-29
2023/03/20 06:24:58;;;;;;;65.72;48.20;;;15.50;99.90;;;;;;4592256;19;20010;-29
2023/03/20 06:26:30;;;;;;;71.47;49.33;;;15.10;99.90;;;;;;4592088;19;20035;-28
2023/03/20 06:28:01;;;;;;;70.05;49.75;;;14.70;99.90;;;;;;4590917;19;20368;-27
2023/03/20 06:29:33;;;;;;;70.97;50.67;;;14.50;99.90;;;;;;4591729;19;20468;-29
2023/03/20 06:31:05;;;;;;;67.82;46.13;;;14.30;99.90;;;;;;4592120;19;20479;-28
2023/03/20 06:32:37;;;;;;;68.13;49.65;;;14.10;99.90;;;;;;4591883;19;20014;-29
2023/03/20 06:34:09;;;;;;;63.13;46.37;;;14.00;99.90;;;;;;4591787;19;20463;-32
2023/03/20 06:35:40;;;;;;;69.07;48.15;;;14.00;99.90;;;;;;4591558;19;20019;-29
2023/03/20 06:37:11;;;;;;;65.25;47.83;;;13.90;99.90;;;;;;4592034;19;20044;-31
2023/03/20 06:38:44;;;;;;;66.63;47.83;;;13.80;99.90;;;;;;4589963;19;20081;-29
2023/03/20 06:40:15;;;;;;;69.35;49.90;;;13.80;99.90;;;;;;4590783;19;21099;-29
2023/03/20 06:41:47;;;;;;;70.65;51.42;;;13.70;99.90;;;;;;4591932;19;20521;-28
2023/03/20 06:43:18;;;;;;;81.97;56.80;;;13.70;99.90;;;;;;4591651;19;20022;-29
2023/03/20 06:44:50;;;;;;;85.23;58.90;;;13.70;99.90;;;;;;4591231;19;20018;-28
2023/03/20 06:46:21;;;;;;;140.73;85.60;;;13.70;99.90;;;;;;4591667;19;20555;-30
2023/03/20 06:47:52;;;;;;;156.05;94.22;;;13.60;99.90;;;;;;4591058;19;20019;-29
2023/03/20 06:49:24;;;;;;;156.27;94.85;;;13.70;99.90;;;;;;4592427;19;20041;-28
2023/03/20 06:50:55;;;;;;;162.82;96.32;;;13.60;99.90;;;;;;4588161;19;20476;-29
2023/03/20 06:52:26;;;;;;;156.20;96.13;;;13.70;99.90;;;;;;4592307;19;20032;-32
2023/03/20 06:53:58;;;;;;;144.90;93.82;;;13.60;99.90;;;;;;4591308;19;20082;-29
2023/03/20 06:55:30;;;;;;;133.67;84.50;;;13.60;99.90;;;;;;4592413;19;20006;-32
2023/03/20 06:57:01;;;;;;;114.30;78.05;;;13.60;99.90;;;;;;4591313;19;20106;-32
2023/03/20 06:58:34;;;;;;;116.63;80.77;;;13.70;99.90;;;;;;4591599;19;20029;-29
2023/03/20 07:00:06;;;;;;;122.30;86.65;;;13.70;99.90;;;;;;4592427;19;20022;-31
2023/03/20 07:01:37;;;;;;;130.50;92.00;;;13.70;99.90;;;;;;4590922;19;20582;-30
2023/03/20 07:03:09;;;;;;;127.03;88.13;;;13.70;99.90;;;;;;4591989;19;20456;-28
2023/03/20 07:04:40;;;;;;;119.80;86.47;;;13.70;99.90;;;;;;4589184;19;20022;-31
2023/03/20 07:06:12;;;;;;;128.75;92.07;;;13.70;99.90;;;;;;4592366;19;20025;-29
2023/03/20 07:07:44;;;;;;;140.50;96.40;;;13.70;99.90;;;;;;4590064;19;20021;-28
2023/03/20 07:09:16;;;;;;;116.07;86.88;;;13.70;99.90;;;;;;4590077;19;20019;-30
2023/03/20 07:10:48;;;;;;;107.57;80.17;;;13.70;99.90;;;;;;4590505;19;20468;-30
2023/03/20 07:12:23;;;;;;;98.70;73.87;;;13.70;99.90;;;;;;4588993;19;20432;-31
2023/03/20 07:13:54;;;;;;;99.07;70.57;;;13.80;99.90;;;;;;4590345;19;20463;-29
2023/03/20 07:15:26;;;;;;;94.18;66.03;;;13.90;99.90;;;;;;4590287;19;20513;-27
2023/03/20 07:16:57;;;;;;;;;;;13.90;99.90;;;;;;4591582;19;20021;-32
2023/03/20 07:18:28;;;;;;;84.43;59.07;;;13.90;99.90;;;;;;4590617;19;19922;-28
2023/03/20 07:20:00;;;;;;;75.15;54.83;;;13.90;99.90;;;;;;4590639;19;20417;-32
2023/03/20 07:21:33;;;;;;;76.30;53.73;;;13.90;99.90;;;;;;4590100;19;20031;-29
2023/03/20 07:23:04;;;;;;;67.57;50.42;;;13.90;99.90;;;;;;4590177;19;20494;-26
2023/03/20 07:24:36;;;;;;;61.08;46.83;;;14.00;99.90;;;;;;4589545;19;20018;-27
2023/03/20 07:26:07;;;;;;;62.92;46.70;;;14.10;99.90;;;;;;4591157;19;20019;-27
2023/03/20 07:27:38;;;;;;;61.25;47.85;;;14.20;99.90;;;;;;4590802;19;20066;-28
2023/03/20 07:29:09;;;;;;;59.78;44.67;;;14.30;99.90;;;;;;4590788;19;20015;-31
2023/03/20 07:30:41;;;;;;;60.45;44.90;;;14.30;99.90;;;;;;4590830;19;20007;-35
2023/03/20 07:32:13;;;;;;;58.50;44.13;;;14.30;99.90;;;;;;4590733;19;20032;-29
2023/03/20 07:33:44;;;;;;;56.92;43.35;;;14.40;99.90;;;;;;4590839;19;20014;-30
2023/03/20 07:35:16;;;;;;;54.10;40.10;;;14.40;99.90;;;;;;4590669;19;20010;-29
2023/03/20 07:36:48;;;;;;;54.28;40.60;;;14.40;99.90;;;;;;4589409;19;20022;-30
2023/03/20 07:38:21;;;;;;;57.40;42.97;;;14.30;99.90;;;;;;4590669;19;20014;-27
2023/03/20 07:39:52;;;;;;;52.70;41.80;;;14.30;99.90;;;;;;4590414;19;20370;-30
2023/03/20 07:41:23;;;;;;;53.05;40.28;;;14.30;99.90;;;;;;4590398;19;20015;-29
2023/03/20 07:42:55;;;;;;;53.25;40.30;;;14.30;99.90;;;;;;4590476;19;20002;-31
2023/03/20 07:44:28;;;;;;;49.20;36.63;;;14.30;99.90;;;;;;4590411;19;20020;-28
2023/03/20 07:46:06;;;;;;;49.05;38.10;;;14.30;99.90;;;;;;4590525;19;20369;-31
2023/03/20 07:47:37;;;;;;;49.30;36.70;;;14.40;99.90;;;;;;4590595;19;20066;-29
2023/03/20 07:49:10;;;;;;;50.37;38.67;;;14.50;99.90;;;;;;4590689;19;20503;-30
2023/03/20 07:50:41;;;;;;;52.42;38.15;;;14.50;99.90;;;;;;4590417;19;20018;-31
2023/03/20 07:52:13;;;;;;;49.53;38.80;;;14.40;99.90;;;;;;4590392;19;20034;-31
2023/03/20 07:53:45;;;;;;;;;;;14.40;99.90;;;;;;4590321;19;20015;-29
2023/03/20 07:55:16;;;;;;;51.60;38.43;;;14.40;99.90;;;;;;4590171;19;19917;-29
2023/03/20 07:56:49;;;;;;;56.17;40.40;;;14.40;99.90;;;;;;4588109;19;20625;-32
2023/03/20 07:58:22;;;;;;;50.10;38.63;;;14.40;99.90;;;;;;4589793;19;20021;-29
2023/03/20 07:59:54;;;;;;;49.67;39.67;;;14.40;99.90;;;;;;4588953;19;20018;-30
2023/03/20 08:01:27;;;;;;;58.57;41.40;;;14.30;99.90;;;;;;4589819;19;20018;-30
2023/03/20 08:02:59;;;;;;;57.40;39.20;;;14.30;99.90;;;;;;4589994;19;20022;-31
2023/03/20 08:04:31;;;;;;;55.20;39.77;;;14.30;99.90;;;;;;4589989;19;20006;-31